sensor_id;sensor_type;location;lat;lon;timestamp;pressure;altitude;pressure_sealevel;temperature;humidity
66398;BME280;54877;51.504;3.894;2024-01-10T00:01:41;103146.44;;;-0.50;45.80
66398;BME280;54877;51.504;3.894;2024-01-10T00:04:07;103144.66;;;-0.51;45.80
66398;BME280;54877;51.504;3.894;2024-01-10T00:06:32;103135.06;;;-0.52;45.85
66398;BME280;54877;51.504;3.894;2024-01-10T00:08:57;103137.97;;;-0.43;46.51
66398;BME280;54877;51.504;3.894;2024-01-10T00:11:23;103136.19;;;-0.44;46.51
66398;BME280;54877;51.504;3.894;2024-01-10T00:13:51;103134.34;;;-0.48;45.99
66398;BME280;54877;51.504;3.894;2024-01-10T00:16:16;103133.47;;;-0.48;45.68
66398;BME280;54877;51.504;3.894;2024-01-10T00:18:42;103132.38;;;-0.55;46.05
66398;BME280;54877;51.504;3.894;2024-01-10T00:21:07;103129.06;;;-0.51;46.13
66398;BME280;54877;51.504;3.894;2024-01-10T00:23:33;103126.22;;;-0.58;46.81
66398;BME280;54877;51.504;3.894;2024-01-10T00:25:58;103121.72;;;-0.63;46.79
66398;BME280;54877;51.504;3.894;2024-01-10T00:28:24;103135.41;;;-0.68;46.53
66398;BME280;54877;51.504;3.894;2024-01-10T00:30:50;103134.53;;;-0.69;46.67
66398;BME280;54877;51.504;3.894;2024-01-10T00:33:15;103134.00;;;-0.58;46.72
66398;BME280;54877;51.504;3.894;2024-01-10T00:35:41;103126.38;;;-0.52;46.81
66398;BME280;54877;51.504;3.894;2024-01-10T00:38:06;103134.94;;;-0.56;46.74
66398;BME280;54877;51.504;3.894;2024-01-10T00:40:32;103130.38;;;-0.64;46.71
66398;BME280;54877;51.504;3.894;2024-01-10T00:42:57;103129.75;;;-0.56;46.62
66398;BME280;54877;51.504;3.894;2024-01-10T00:45:23;103130.31;;;-0.65;46.98
66398;BME280;54877;51.504;3.894;2024-01-10T00:47:48;103122.53;;;-0.65;46.51
66398;BME280;54877;51.504;3.894;2024-01-10T00:50:14;103115.59;;;-0.65;46.75
66398;BME280;54877;51.504;3.894;2024-01-10T00:52:39;103114.72;;;-0.65;46.91
66398;BME280;54877;51.504;3.894;2024-01-10T00:55:05;103112.25;;;-0.61;46.68
66398;BME280;54877;51.504;3.894;2024-01-10T01:37:58;103096.84;;;-0.81;46.95
66398;BME280;54877;51.504;3.894;2024-01-10T01:40:23;103086.34;;;-0.84;46.86
66398;BME280;54877;51.504;3.894;2024-01-10T01:42:49;103088.03;;;-0.86;47.07
66398;BME280;54877;51.504;3.894;2024-01-10T01:45:14;103089.19;;;-0.77;47.74
66398;BME280;54877;51.504;3.894;2024-01-10T01:47:40;103091.84;;;-0.75;47.85
66398;BME280;54877;51.504;3.894;2024-01-10T01:50:05;103079.97;;;-0.67;47.86
66398;BME280;54877;51.504;3.894;2024-01-10T01:52:32;103076.34;;;-0.72;47.95
66398;BME280;54877;51.504;3.894;2024-01-10T01:54:59;103083.94;;;-0.78;47.59
66398;BME280;54877;51.504;3.894;2024-01-10T01:57:25;103084.66;;;-0.82;47.81
66398;BME280;54877;51.504;3.894;2024-01-10T01:59:50;103080.59;;;-0.74;47.64
66398;BME280;54877;51.504;3.894;2024-01-10T02:02:16;103079.66;;;-0.76;47.79
66398;BME280;54877;51.504;3.894;2024-01-10T02:04:42;103075.41;;;-0.74;48.06
66398;BME280;54877;51.504;3.894;2024-01-10T02:07:07;103073.22;;;-0.89;47.78
66398;BME280;54877;51.504;3.894;2024-01-10T02:09:32;103073.31;;;-0.86;47.95
66398;BME280;54877;51.504;3.894;2024-01-10T02:11:58;103076.25;;;-0.75;47.74
66398;BME280;54877;51.504;3.894;2024-01-10T02:14:23;103075.50;;;-0.71;47.77
66398;BME280;54877;51.504;3.894;2024-01-10T02:16:49;103073.47;;;-0.80;47.59
66398;BME280;54877;51.504;3.894;2024-01-10T02:19:21;103078.19;;;-0.68;47.61
66398;BME280;54877;51.504;3.894;2024-01-10T02:21:47;103079.47;;;-0.82;47.69
66398;BME280;54877;51.504;3.894;2024-01-10T02:24:13;103079.56;;;-0.79;47.80
66398;BME280;54877;51.504;3.894;2024-01-10T02:26:39;103080.44;;;-0.80;47.99
66398;BME280;54877;51.504;3.894;2024-01-10T02:29:04;103078.00;;;-0.74;48.10
66398;BME280;54877;51.504;3.894;2024-01-10T02:31:30;103083.19;;;-0.74;48.04
66398;BME280;54877;51.504;3.894;2024-01-10T02:33:55;103075.16;;;-0.82;48.64
66398;BME280;54877;51.504;3.894;2024-01-10T02:36:20;103069.28;;;-0.76;48.48
66398;BME280;54877;51.504;3.894;2024-01-10T02:38:46;103072.91;;;-0.71;48.18
66398;BME280;54877;51.504;3.894;2024-01-10T02:41:12;103067.56;;;-0.76;48.41
66398;BME280;54877;51.504;3.894;2024-01-10T02:43:38;103073.47;;;-0.80;48.47
66398;BME280;54877;51.504;3.894;2024-01-10T02:46:03;103070.94;;;-0.78;48.12
66398;BME280;54877;51.504;3.894;2024-01-10T02:48:29;103064.03;;;-0.78;48.19
66398;BME280;54877;51.504;3.894;2024-01-10T02:50:54;103066.81;;;-0.72;48.08
66398;BME280;54877;51.504;3.894;2024-01-10T02:53:20;103065.78;;;-0.77;48.42
66398;BME280;54877;51.504;3.894;2024-01-10T02:55:46;103068.97;;;-0.85;47.98
66398;BME280;54877;51.504;3.894;2024-01-10T02:58:13;103065.44;;;-0.87;48.71
66398;BME280;54877;51.504;3.894;2024-01-10T03:00:38;103060.91;;;-0.94;48.65
66398;BME280;54877;51.504;3.894;2024-01-10T03:03:04;103066.25;;;-0.88;48.64
66398;BME280;54877;51.504;3.894;2024-01-10T03:05:29;103061.50;;;-1.01;48.41
66398;BME280;54877;51.504;3.894;2024-01-10T03:07:54;103062.44;;;-0.99;48.77
66398;BME280;54877;51.504;3.894;2024-01-10T03:10:20;103052.91;;;-0.99;48.73
66398;BME280;54877;51.504;3.894;2024-01-10T03:12:45;103048.91;;;-0.89;48.71
66398;BME280;54877;51.504;3.894;2024-01-10T03:15:10;103053.38;;;-0.85;48.53
66398;BME280;54877;51.504;3.894;2024-01-10T03:17:36;103055.03;;;-0.87;48.51
66398;BME280;54877;51.504;3.894;2024-01-10T03:20:02;103051.28;;;-0.97;48.83
66398;BME280;54877;51.504;3.894;2024-01-10T03:22:28;103047.94;;;-0.93;48.62
66398;BME280;54877;51.504;3.894;2024-01-10T03:24:55;103049.53;;;-0.96;49.19
66398;BME280;54877;51.504;3.894;2024-01-10T03:27:21;103040.91;;;-0.95;49.17
66398;BME280;54877;51.504;3.894;2024-01-10T03:29:46;103044.34;;;-0.96;48.97
66398;BME280;54877;51.504;3.894;2024-01-10T03:32:11;103046.22;;;-0.92;49.08
66398;BME280;54877;51.504;3.894;2024-01-10T03:34:37;103041.59;;;-1.01;48.93
66398;BME280;54877;51.504;3.894;2024-01-10T03:37:02;103044.50;;;-0.92;49.40
66398;BME280;54877;51.504;3.894;2024-01-10T03:39:28;103047.09;;;-0.92;49.65
66398;BME280;54877;51.504;3.894;2024-01-10T03:41:53;103044.75;;;-0.84;49.88
66398;BME280;54877;51.504;3.894;2024-01-10T03:44:18;103045.41;;;-0.91;49.92
66398;BME280;54877;51.504;3.894;2024-01-10T03:46:43;103042.63;;;-0.96;50.40
66398;BME280;54877;51.504;3.894;2024-01-10T03:49:09;103044.34;;;-0.96;50.19
66398;BME280;54877;51.504;3.894;2024-01-10T03:51:36;103034.00;;;-0.95;50.42
66398;BME280;54877;51.504;3.894;2024-01-10T03:54:02;103033.94;;;-0.96;50.59
66398;BME280;54877;51.504;3.894;2024-01-10T03:56:28;103039.66;;;-1.08;50.71
66398;BME280;54877;51.504;3.894;2024-01-10T03:58:54;103029.50;;;-1.00;50.40
66398;BME280;54877;51.504;3.894;2024-01-10T04:01:21;103028.19;;;-1.13;50.92
66398;BME280;54877;51.504;3.894;2024-01-10T04:03:48;103024.91;;;-1.07;50.55
66398;BME280;54877;51.504;3.894;2024-01-10T04:06:13;103028.38;;;-1.08;51.03
66398;BME280;54877;51.504;3.894;2024-01-10T04:08:39;103028.47;;;-1.05;50.68
66398;BME280;54877;51.504;3.894;2024-01-10T04:11:04;103032.66;;;-1.09;51.33
66398;BME280;54877;51.504;3.894;2024-01-10T04:13:30;103035.41;;;-1.04;51.18
66398;BME280;54877;51.504;3.894;2024-01-10T04:15:55;103034.53;;;-1.05;50.59
66398;BME280;54877;51.504;3.894;2024-01-10T04:18:20;103025.00;;;-1.04;51.06
66398;BME280;54877;51.504;3.894;2024-01-10T04:20:46;103016.19;;;-1.09;50.99
66398;BME280;54877;51.504;3.894;2024-01-10T04:23:15;103022.38;;;-1.06;50.89
66398;BME280;54877;51.504;3.894;2024-01-10T04:25:40;103017.09;;;-1.07;51.03
66398;BME280;54877;51.504;3.894;2024-01-10T04:28:05;103013.69;;;-1.06;50.40
66398;BME280;54877;51.504;3.894;2024-01-10T04:30:31;103017.97;;;-1.08;50.95
66398;BME280;54877;51.504;3.894;2024-01-10T04:32:56;103010.78;;;-1.15;51.15
66398;BME280;54877;51.504;3.894;2024-01-10T04:35:22;103016.06;;;-1.14;51.79
66398;BME280;54877;51.504;3.894;2024-01-10T04:37:47;103011.75;;;-1.13;51.44
66398;BME280;54877;51.504;3.894;2024-01-10T04:40:12;103008.53;;;-1.05;51.51
66398;BME280;54877;51.504;3.894;2024-01-10T04:42:38;103004.81;;;-1.13;51.23
66398;BME280;54877;51.504;3.894;2024-01-10T04:45:03;103002.28;;;-1.11;51.54
66398;BME280;54877;51.504;3.894;2024-01-10T04:47:29;103005.09;;;-1.04;51.52
66398;BME280;54877;51.504;3.894;2024-01-10T04:49:55;103006.47;;;-1.15;51.90
66398;BME280;54877;51.504;3.894;2024-01-10T04:52:20;103000.59;;;-1.09;51.80
66398;BME280;54877;51.504;3.894;2024-01-10T04:54:45;103014.25;;;-1.16;52.11
66398;BME280;54877;51.504;3.894;2024-01-10T04:57:11;103013.03;;;-1.26;52.01
66398;BME280;54877;51.504;3.894;2024-01-10T04:59:36;103007.16;;;-1.21;52.40
66398;BME280;54877;51.504;3.894;2024-01-10T05:02:01;103007.16;;;-1.21;52.26
66398;BME280;54877;51.504;3.894;2024-01-10T05:04:27;103008.41;;;-1.35;52.71
66398;BME280;54877;51.504;3.894;2024-01-10T05:06:52;102995.44;;;-1.35;53.12
66398;BME280;54877;51.504;3.894;2024-01-10T05:09:18;103009.19;;;-1.37;52.66
66398;BME280;54877;51.504;3.894;2024-01-10T05:11:43;103004.34;;;-1.27;52.65
66398;BME280;54877;51.504;3.894;2024-01-10T05:14:12;102991.19;;;-1.33;52.11
66398;BME280;54877;51.504;3.894;2024-01-10T05:16:37;102991.09;;;-1.36;52.81
66398;BME280;54877;51.504;3.894;2024-01-10T05:19:03;102994.81;;;-1.28;52.25
66398;BME280;54877;51.504;3.894;2024-01-10T05:21:29;102997.06;;;-1.38;52.42
66398;BME280;54877;51.504;3.894;2024-01-10T05:23:55;102986.81;;;-1.34;52.05
66398;BME280;54877;51.504;3.894;2024-01-10T05:26:20;102985.19;;;-1.30;52.36
66398;BME280;54877;51.504;3.894;2024-01-10T05:28:46;102998.44;;;-1.23;52.64
66398;BME280;54877;51.504;3.894;2024-01-10T05:31:11;102990.75;;;-1.20;52.14
66398;BME280;54877;51.504;3.894;2024-01-10T05:33:36;102998.34;;;-1.26;51.89
66398;BME280;54877;51.504;3.894;2024-01-10T05:36:02;103000.22;;;-1.22;52.41
66398;BME280;54877;51.504;3.894;2024-01-10T05:38:28;102997.31;;;-1.31;52.72
66398;BME280;54877;51.504;3.894;2024-01-10T05:40:53;102998.81;;;-1.37;52.38
66398;BME280;54877;51.504;3.894;2024-01-10T05:43:18;103000.47;;;-1.39;52.50
66398;BME280;54877;51.504;3.894;2024-01-10T05:45:44;103007.63;;;-1.32;53.02
66398;BME280;54877;51.504;3.894;2024-01-10T05:48:09;102998.88;;;-1.36;52.67
66398;BME280;54877;51.504;3.894;2024-01-10T05:50:34;102996.19;;;-1.39;53.22
66398;BME280;54877;51.504;3.894;2024-01-10T05:53:00;103000.00;;;-1.28;53.35
66398;BME280;54877;51.504;3.894;2024-01-10T05:55:25;102995.69;;;-1.27;52.97
66398;BME280;54877;51.504;3.894;2024-01-10T05:57:51;103010.09;;;-1.37;53.29
66398;BME280;54877;51.504;3.894;2024-01-10T06:00:16;103000.47;;;-1.39;52.94
66398;BME280;54877;51.504;3.894;2024-01-10T06:02:42;102995.84;;;-1.48;53.36
66398;BME280;54877;51.504;3.894;2024-01-10T06:05:08;102993.59;;;-1.37;53.10
66398;BME280;54877;51.504;3.894;2024-01-10T06:07:35;102992.94;;;-1.32;53.08
66398;BME280;54877;51.504;3.894;2024-01-10T06:10:01;102999.91;;;-1.31;53.13
66398;BME280;54877;51.504;3.894;2024-01-10T06:12:26;103000.59;;;-1.36;53.17
66398;BME280;54877;51.504;3.894;2024-01-10T06:14:52;103005.91;;;-1.32;53.01
66398;BME280;54877;51.504;3.894;2024-01-10T06:17:18;102999.69;;;-1.37;53.06
66398;BME280;54877;51.504;3.894;2024-01-10T06:19:43;102994.53;;;-1.35;53.07
66398;BME280;54877;51.504;3.894;2024-01-10T06:22:09;103000.69;;;-1.33;53.02
66398;BME280;54877;51.504;3.894;2024-01-10T06:24:36;102999.25;;;-1.24;52.75
66398;BME280;54877;51.504;3.894;2024-01-10T06:27:02;103004.66;;;-1.17;53.21
66398;BME280;54877;51.504;3.894;2024-01-10T06:29:29;103003.00;;;-1.15;53.04
66398;BME280;54877;51.504;3.894;2024-01-10T06:31:54;102999.31;;;-1.22;52.82
66398;BME280;54877;51.504;3.894;2024-01-10T06:34:21;102997.75;;;-1.17;52.81
66398;BME280;54877;51.504;3.894;2024-01-10T06:36:47;103004.44;;;-1.24;52.62
66398;BME280;54877;51.504;3.894;2024-01-10T06:39:12;103004.63;;;-1.19;53.07
66398;BME280;54877;51.504;3.894;2024-01-10T06:41:38;103008.00;;;-1.22;52.73
66398;BME280;54877;51.504;3.894;2024-01-10T06:44:04;103003.00;;;-1.15;53.00
66398;BME280;54877;51.504;3.894;2024-01-10T06:46:30;103006.28;;;-1.21;52.71
66398;BME280;54877;51.504;3.894;2024-01-10T06:48:56;103007.63;;;-1.32;52.87
66398;BME280;54877;51.504;3.894;2024-01-10T06:51:22;103006.16;;;-1.24;53.30
66398;BME280;54877;51.504;3.894;2024-01-10T06:53:48;103009.81;;;-1.19;52.77
66398;BME280;54877;51.504;3.894;2024-01-10T06:56:13;103005.03;;;-1.32;52.74
66398;BME280;54877;51.504;3.894;2024-01-10T06:58:39;103010.22;;;-1.32;53.40
66398;BME280;54877;51.504;3.894;2024-01-10T07:01:04;103008.97;;;-1.18;52.79
66398;BME280;54877;51.504;3.894;2024-01-10T07:03:31;103005.47;;;-1.19;52.72
66398;BME280;54877;51.504;3.894;2024-01-10T07:05:57;103003.53;;;-1.26;52.96
66398;BME280;54877;51.504;3.894;2024-01-10T07:08:23;102998.66;;;-1.16;53.02
66398;BME280;54877;51.504;3.894;2024-01-10T07:10:50;102994.03;;;-1.25;53.55
66398;BME280;54877;51.504;3.894;2024-01-10T07:13:15;103001.06;;;-1.21;53.59
66398;BME280;54877;51.504;3.894;2024-01-10T07:15:40;103006.53;;;-1.13;53.60
66398;BME280;54877;51.504;3.894;2024-01-10T07:18:06;102997.69;;;-1.19;54.10
66398;BME280;54877;51.504;3.894;2024-01-10T07:20:31;102998.34;;;-1.26;54.14
66398;BME280;54877;51.504;3.894;2024-01-10T07:22:57;103008.53;;;-1.32;54.55
66398;BME280;54877;51.504;3.894;2024-01-10T07:25:24;103012.81;;;-1.32;54.58
66398;BME280;54877;51.504;3.894;2024-01-10T07:27:50;103004.34;;;-1.27;54.36
66398;BME280;54877;51.504;3.894;2024-01-10T07:30:16;103012.09;;;-1.28;54.98
66398;BME280;54877;51.504;3.894;2024-01-10T07:32:45;103011.97;;;-1.33;54.86
66398;BME280;54877;51.504;3.894;2024-01-10T07:35:11;103005.88;;;-1.33;54.22
66398;BME280;54877;51.504;3.894;2024-01-10T07:37:39;103000.78;;;-1.30;54.43
66398;BME280;54877;51.504;3.894;2024-01-10T07:40:05;103005.34;;;-1.23;54.21
66398;BME280;54877;51.504;3.894;2024-01-10T07:42:34;103010.69;;;-1.19;53.82
66398;BME280;54877;51.504;3.894;2024-01-10T07:45:00;103003.53;;;-1.26;54.02
66398;BME280;54877;51.504;3.894;2024-01-10T07:47:32;103008.53;;;-1.32;54.02
66398;BME280;54877;51.504;3.894;2024-01-10T07:50:07;103001.25;;;-1.42;54.33
66398;BME280;54877;51.504;3.894;2024-01-10T07:52:33;102996.00;;;-1.43;54.25
66398;BME280;54877;51.504;3.894;2024-01-10T07:54:59;102996.44;;;-1.30;54.16
66398;BME280;54877;51.504;3.894;2024-01-10T07:57:24;103003.66;;;-1.48;54.62
66398;BME280;54877;51.504;3.894;2024-01-10T07:59:50;103006.47;;;-1.42;54.71
66398;BME280;54877;51.504;3.894;2024-01-10T08:02:15;103001.06;;;-1.48;54.83
66398;BME280;54877;51.504;3.894;2024-01-10T08:04:41;102995.03;;;-1.47;55.03
66398;BME280;54877;51.504;3.894;2024-01-10T08:07:07;103006.09;;;-1.52;55.00
66398;BME280;54877;51.504;3.894;2024-01-10T08:09:32;102994.06;;;-1.49;54.38
66398;BME280;54877;51.504;3.894;2024-01-10T08:11:58;102986.66;;;-1.38;54.67
66398;BME280;54877;51.504;3.894;2024-01-10T08:14:23;102991.75;;;-1.41;54.66
66398;BME280;54877;51.504;3.894;2024-01-10T08:16:49;102975.28;;;-1.42;55.08
66398;BME280;54877;51.504;3.894;2024-01-10T08:19:14;102991.88;;;-1.38;54.97
66398;BME280;54877;51.504;3.894;2024-01-10T08:21:40;102987.34;;;-1.44;54.87
66398;BME280;54877;51.504;3.894;2024-01-10T08:24:05;102990.13;;;-1.38;54.26
66398;BME280;54877;51.504;3.894;2024-01-10T08:26:31;102993.38;;;-1.45;54.34
66398;BME280;54877;51.504;3.894;2024-01-10T08:28:56;102995.03;;;-1.47;55.03
66398;BME280;54877;51.504;3.894;2024-01-10T08:31:22;102990.78;;;-1.45;54.62
66398;BME280;54877;51.504;3.894;2024-01-10T08:33:48;102998.81;;;-1.37;54.48
66398;BME280;54877;51.504;3.894;2024-01-10T08:36:14;102998.34;;;-1.26;54.32
66398;BME280;54877;51.504;3.894;2024-01-10T08:38:39;102998.88;;;-1.36;54.07
66398;BME280;54877;51.504;3.894;2024-01-10T08:41:05;103005.19;;;-1.28;54.02
66398;BME280;54877;51.504;3.894;2024-01-10T08:43:32;103006.47;;;-1.42;54.22
66398;BME280;54877;51.504;3.894;2024-01-10T08:45:57;103004.69;;;-1.43;54.75
66398;BME280;54877;51.504;3.894;2024-01-10T08:48:23;103017.25;;;-1.30;54.12
66398;BME280;54877;51.504;3.894;2024-01-10T08:50:50;103018.53;;;-1.17;54.38
66398;BME280;54877;51.504;3.894;2024-01-10T08:53:15;103007.25;;;-1.17;53.65
66398;BME280;54877;51.504;3.894;2024-01-10T08:55:41;103014.34;;;-1.13;53.49
66398;BME280;54877;51.504;3.894;2024-01-10T08:58:09;103015.94;;;-1.17;53.38
66398;BME280;54877;51.504;3.894;2024-01-10T09:00:35;103022.84;;;-1.17;53.09
66398;BME280;54877;51.504;3.894;2024-01-10T09:03:00;103018.53;;;-1.17;52.92
66398;BME280;54877;51.504;3.894;2024-01-10T09:05:27;103013.56;;;-1.11;52.83
66398;BME280;54877;51.504;3.894;2024-01-10T09:07:52;103013.66;;;-1.08;52.80
66398;BME280;54877;51.504;3.894;2024-01-10T09:10:19;103015.59;;;-1.28;52.80
66398;BME280;54877;51.504;3.894;2024-01-10T09:12:46;103009.22;;;-1.10;52.58
66398;BME280;54877;51.504;3.894;2024-01-10T09:15:12;103003.31;;;-1.05;52.49
66398;BME280;54877;51.504;3.894;2024-01-10T09:17:39;103018.25;;;-0.99;52.37
66398;BME280;54877;51.504;3.894;2024-01-10T09:20:05;103012.88;;;-1.05;51.81
66398;BME280;54877;51.504;3.894;2024-01-10T09:22:31;103006.41;;;-0.91;51.57
66398;BME280;54877;51.504;3.894;2024-01-10T09:24:57;103013.03;;;-0.99;51.55
66398;BME280;54877;51.504;3.894;2024-01-10T09:27:28;103008.13;;;-0.90;52.04
66398;BME280;54877;51.504;3.894;2024-01-10T09:29:53;103008.94;;;-0.93;51.33
66398;BME280;54877;51.504;3.894;2024-01-10T09:32:19;103008.31;;;-0.86;51.82
66398;BME280;54877;51.504;3.894;2024-01-10T09:34:44;103010.38;;;-0.74;51.20
66398;BME280;54877;51.504;3.894;2024-01-10T09:37:11;103018.63;;;-0.87;51.45
66398;BME280;54877;51.504;3.894;2024-01-10T09:39:36;103021.91;;;-0.66;51.43
66398;BME280;54877;51.504;3.894;2024-01-10T09:42:03;103018.56;;;-0.62;50.53
66398;BME280;54877;51.504;3.894;2024-01-10T09:44:29;103022.94;;;-0.61;50.60
66398;BME280;54877;51.504;3.894;2024-01-10T09:46:54;103019.00;;;-0.48;50.31
66398;BME280;54877;51.504;3.894;2024-01-10T09:49:20;103023.03;;;-0.58;49.91
66398;BME280;54877;51.504;3.894;2024-01-10T09:51:47;103026.41;;;-0.61;50.01
66398;BME280;54877;51.504;3.894;2024-01-10T09:54:14;103026.91;;;-0.44;49.67
66398;BME280;54877;51.504;3.894;2024-01-10T09:56:41;103026.13;;;-0.41;49.16
66398;BME280;54877;51.504;3.894;2024-01-10T09:59:07;103028.81;;;-0.38;49.15
66398;BME280;54877;51.504;3.894;2024-01-10T10:01:36;103033.81;;;-0.46;48.84
66398;BME280;54877;51.504;3.894;2024-01-10T10:04:04;103031.81;;;-0.54;49.39
66398;BME280;54877;51.504;3.894;2024-01-10T10:06:29;103033.25;;;-0.64;49.41
66398;BME280;54877;51.504;3.894;2024-01-10T10:08:55;103022.06;;;-0.62;49.08
66398;BME280;54877;51.504;3.894;2024-01-10T10:11:20;103025.97;;;-0.47;49.71
66398;BME280;54877;51.504;3.894;2024-01-10T10:13:46;103034.38;;;-0.28;49.52
66398;BME280;54877;51.504;3.894;2024-01-10T10:16:11;103032.50;;;-0.32;48.91
66398;BME280;54877;51.504;3.894;2024-01-10T10:18:37;103030.09;;;-0.26;49.07
66398;BME280;54877;51.504;3.894;2024-01-10T10:21:11;103030.56;;;-0.39;48.83
66398;BME280;54877;51.504;3.894;2024-01-10T10:23:41;103028.59;;;-0.46;49.09
66398;BME280;54877;51.504;3.894;2024-01-10T10:26:14;103028.09;;;-0.34;49.62
66398;BME280;54877;51.504;3.894;2024-01-10T10:28:44;103022.97;;;-0.31;49.49
66398;BME280;54877;51.504;3.894;2024-01-10T10:31:10;103011.78;;;-0.29;49.35
66398;BME280;54877;51.504;3.894;2024-01-10T10:33:36;103028.63;;;-0.16;49.23
66398;BME280;54877;51.504;3.894;2024-01-10T10:36:02;103018.34;;;-0.12;49.43
66398;BME280;54877;51.504;3.894;2024-01-10T10:38:28;103019.09;;;-0.16;49.19
66398;BME280;54877;51.504;3.894;2024-01-10T10:40:53;103013.25;;;-0.07;49.32
66398;BME280;54877;51.504;3.894;2024-01-10T10:43:20;103013.94;;;0.17;49.30
66398;BME280;54877;51.504;3.894;2024-01-10T10:45:47;103006.28;;;0.22;48.96
66398;BME280;54877;51.504;3.894;2024-01-10T10:48:16;103010.19;;;0.39;48.99
66398;BME280;54877;51.504;3.894;2024-01-10T10:50:45;103002.88;;;0.26;48.71
66398;BME280;54877;51.504;3.894;2024-01-10T10:53:20;103009.44;;;0.43;48.40
66398;BME280;54877;51.504;3.894;2024-01-10T10:55:47;103006.44;;;0.61;48.67
66398;BME280;54877;51.504;3.894;2024-01-10T10:58:14;103003.94;;;0.65;48.23
66398;BME280;54877;51.504;3.894;2024-01-10T11:00:40;103002.41;;;0.73;47.91
66398;BME280;54877;51.504;3.894;2024-01-10T11:03:07;103005.63;;;0.63;48.03
66398;BME280;54877;51.504;3.894;2024-01-10T11:05:35;103003.59;;;0.53;47.79
66398;BME280;54877;51.504;3.894;2024-01-10T11:08:07;102998.72;;;0.65;47.99
66398;BME280;54877;51.504;3.894;2024-01-10T11:10:36;102990.13;;;0.69;47.70
66398;BME280;54877;51.504;3.894;2024-01-10T11:18:58;102985.94;;;0.74;47.45
66398;BME280;54877;51.504;3.894;2024-01-10T11:21:50;102990.44;;;0.81;47.50
66398;BME280;54877;51.504;3.894;2024-01-10T11:24:43;102990.84;;;0.98;47.02
66398;BME280;54877;51.504;3.894;2024-01-10T11:27:15;102997.50;;;0.85;46.95
66398;BME280;54877;51.504;3.894;2024-01-10T11:29:41;102988.16;;;0.95;46.39
66398;BME280;54877;51.504;3.894;2024-01-10T11:32:12;102980.66;;;1.08;46.67
66398;BME280;54877;51.504;3.894;2024-01-10T11:34:48;102983.38;;;1.13;46.88
66398;BME280;54877;51.504;3.894;2024-01-10T11:37:15;102976.59;;;1.21;46.49
66398;BME280;54877;51.504;3.894;2024-01-10T11:39:43;102981.16;;;1.30;46.01
66398;BME280;54877;51.504;3.894;2024-01-10T11:42:09;102972.47;;;1.31;46.56
66398;BME280;54877;51.504;3.894;2024-01-10T11:44:34;102967.66;;;1.49;46.22
66398;BME280;54877;51.504;3.894;2024-01-10T11:47:11;102955.66;;;1.57;46.19
66398;BME280;54877;51.504;3.894;2024-01-10T11:49:39;102950.59;;;1.66;45.65
66398;BME280;54877;51.504;3.894;2024-01-10T11:52:05;102945.50;;;1.72;45.43
66398;BME280;54877;51.504;3.894;2024-01-10T11:54:34;102944.59;;;1.70;45.13
66398;BME280;54877;51.504;3.894;2024-01-10T11:57:23;102957.53;;;1.64;45.87
66398;BME280;54877;51.504;3.894;2024-01-10T11:59:52;102941.91;;;1.67;46.11
66398;BME280;54877;51.504;3.894;2024-01-10T12:02:19;102946.25;;;1.65;45.60
66398;BME280;54877;51.504;3.894;2024-01-10T12:04:47;102951.41;;;1.62;45.55
66398;BME280;54877;51.504;3.894;2024-01-10T12:07:13;102943.75;;;1.71;45.78
66398;BME280;54877;51.504;3.894;2024-01-10T12:09:39;102944.09;;;1.88;45.67
66398;BME280;54877;51.504;3.894;2024-01-10T12:12:05;102941.34;;;1.82;45.95
66398;BME280;54877;51.504;3.894;2024-01-10T12:14:31;102941.31;;;1.80;45.81
66398;BME280;54877;51.504;3.894;2024-01-10T12:16:57;102934.63;;;1.94;45.85
66398;BME280;54877;51.504;3.894;2024-01-10T12:19:22;102931.94;;;1.91;45.75
66398;BME280;54877;51.504;3.894;2024-01-10T12:21:48;102931.09;;;1.92;45.53
66398;BME280;54877;51.504;3.894;2024-01-10T12:24:14;102928.63;;;1.98;45.79
66398;BME280;54877;51.504;3.894;2024-01-10T12:26:43;102932.31;;;2.09;45.28
66398;BME280;54877;51.504;3.894;2024-01-10T12:29:09;102927.09;;;2.09;45.33
66398;BME280;54877;51.504;3.894;2024-01-10T12:31:35;102929.53;;;2.02;44.74
66398;BME280;54877;51.504;3.894;2024-01-10T12:34:02;102921.53;;;1.93;45.50
66398;BME280;54877;51.504;3.894;2024-01-10T12:36:27;102923.53;;;2.07;45.23
66398;BME280;54877;51.504;3.894;2024-01-10T12:38:53;102917.72;;;2.20;44.99
66398;BME280;54877;51.504;3.894;2024-01-10T12:41:19;102912.47;;;2.20;44.61
66398;BME280;54877;51.504;3.894;2024-01-10T12:43:54;102909.69;;;2.10;44.75
66398;BME280;54877;51.504;3.894;2024-01-10T12:46:20;102918.16;;;1.98;44.50
66398;BME280;54877;51.504;3.894;2024-01-10T12:48:57;102919.97;;;2.02;45.43
66398;BME280;54877;51.504;3.894;2024-01-10T12:51:27;102918.22;;;2.01;45.56
66398;BME280;54877;51.504;3.894;2024-01-10T12:53:54;102923.41;;;1.98;45.92
66398;BME280;54877;51.504;3.894;2024-01-10T12:56:23;102927.81;;;2.02;45.81
66398;BME280;54877;51.504;3.894;2024-01-10T12:58:49;102918.38;;;2.10;45.88
66398;BME280;54877;51.504;3.894;2024-01-10T13:01:14;102914.91;;;2.11;45.62
66398;BME280;54877;51.504;3.894;2024-01-10T13:03:40;102908.03;;;2.16;45.77
66398;BME280;54877;51.504;3.894;2024-01-10T13:06:06;102906.25;;;2.14;45.58
66398;BME280;54877;51.504;3.894;2024-01-10T13:08:31;102910.59;;;2.13;45.45
66398;BME280;54877;51.504;3.894;2024-01-10T13:10:57;102903.69;;;2.17;44.79
66398;BME280;54877;51.504;3.894;2024-01-10T13:13:23;102909.75;;;2.14;44.69
66398;BME280;54877;51.504;3.894;2024-01-10T13:15:48;102897.34;;;2.01;44.92
66398;BME280;54877;51.504;3.894;2024-01-10T13:18:14;102903.56;;;2.09;44.89
66398;BME280;54877;51.504;3.894;2024-01-10T13:20:40;102909.63;;;2.08;44.93
66398;BME280;54877;51.504;3.894;2024-01-10T13:23:06;102904.59;;;2.17;44.91
66398;BME280;54877;51.504;3.894;2024-01-10T13:25:32;102900.06;;;2.09;44.68
66398;BME280;54877;51.504;3.894;2024-01-10T13:27:58;102901.00;;;2.12;44.51
66398;BME280;54877;51.504;3.894;2024-01-10T13:30:24;102907.09;;;2.13;45.52
66398;BME280;54877;51.504;3.894;2024-01-10T13:32:49;102904.63;;;2.20;46.65
66398;BME280;54877;51.504;3.894;2024-01-10T13:35:15;102900.84;;;2.03;47.92